CSN665 PAIW-UHMD
Flight info
| Callsign | CSN665 |
|---|---|
| Flight time | 1h 3m |
| Altitude | 8000 |
| Route | BATNI/K0322F080 DCT LA DCT DEGIR DEGIR1G |
| Aircraft | C208/L-SDFGR/C |
Departure
| Time | 2026-05-04 22:33 |
|---|---|
| Airport | Wales Airport (PAIW) |
Arrival
| Time | 2026-05-04 23:37 |
|---|---|
| Airport | Provideniya Bay Airport (UHMD) |
| Time | Latitude | Longitude | Altitude | Speed | Heading |
|---|---|---|---|---|---|
| 2026-05-04 22:28 | 65.61656 | -168.09485 | 31 ft | 0 kts | 179° |
| 2026-05-04 22:28 | 65.61656 | -168.09511 | 30 ft | 5 kts | 328° |
| 2026-05-04 22:29 | 65.61670 | -168.09462 | 32 ft | 6 kts | 168° |
| 2026-05-04 22:29 | 65.61610 | -168.09478 | 31 ft | 15 kts | 232° |
| 2026-05-04 22:29 | 65.61588 | -168.09566 | 31 ft | 4 kts | 250° |
| 2026-05-04 22:29 | 65.61623 | -168.09650 | 31 ft | 10 kts | 351° |
| 2026-05-04 22:30 | 65.61716 | -168.09633 | 29 ft | 17 kts | 8° |
| 2026-05-04 22:30 | 65.61852 | -168.09618 | 29 ft | 21 kts | 6° |
| 2026-05-04 22:30 | 65.62014 | -168.09581 | 28 ft | 24 kts | 4° |
| 2026-05-04 22:30 | 65.62185 | -168.09513 | 30 ft | 26 kts | 12° |
| 2026-05-04 22:31 | 65.62373 | -168.09419 | 29 ft | 28 kts | 12° |
| 2026-05-04 22:31 | 65.62551 | -168.09322 | 29 ft | 25 kts | 9° |
| 2026-05-04 22:31 | 65.62711 | -168.09294 | 33 ft | 22 kts | 356° |
| 2026-05-04 22:31 | 65.62840 | -168.09296 | 32 ft | 14 kts | 85° |
| 2026-05-04 22:32 | 65.62762 | -168.09310 | 32 ft | 13 kts | 189° |
| 2026-05-04 22:32 | 65.62662 | -168.09346 | 32 ft | 22 kts | 188° |
| 2026-05-04 22:32 | 65.62336 | -168.09447 | 29 ft | 71 kts | 187° |
| 2026-05-04 22:32 | 65.61758 | -168.09619 | 215 ft | 86 kts | 186° |
| 2026-05-04 22:33 | 65.61131 | -168.09606 | 480 ft | 94 kts | 176° |
| 2026-05-04 22:33 | 65.60468 | -168.09518 | 756 ft | 97 kts | 189° |
| 2026-05-04 22:33 | 65.59834 | -168.10254 | 1041 ft | 106 kts | 222° |
| 2026-05-04 22:33 | 65.59449 | -168.11812 | 1352 ft | 110 kts | 245° |
| 2026-05-04 22:34 | 65.59360 | -168.13645 | 1633 ft | 114 kts | 283° |
| 2026-05-04 22:34 | 65.59667 | -168.15417 | 1941 ft | 118 kts | 292° |
| 2026-05-04 22:34 | 65.60010 | -168.17291 | 2266 ft | 122 kts | 296° |
| 2026-05-04 22:34 | 65.60602 | -168.18765 | 2554 ft | 128 kts | 324° |
| 2026-05-04 22:35 | 65.61350 | -168.19970 | 2862 ft | 130 kts | 323° |
| 2026-05-04 22:35 | 65.62102 | -168.21215 | 3166 ft | 132 kts | 323° |
| 2026-05-04 22:35 | 65.62845 | -168.22437 | 3572 ft | 126 kts | 323° |
| 2026-05-04 22:35 | 65.63559 | -168.23610 | 3959 ft | 122 kts | 323° |
| 2026-05-04 22:36 | 65.64159 | -168.24958 | 4351 ft | 116 kts | 289° |
| 2026-05-04 22:36 | 65.64051 | -168.26779 | 4767 ft | 110 kts | 248° |
| 2026-05-04 22:36 | 65.64059 | -168.28574 | 5129 ft | 107 kts | 281° |
| 2026-05-04 22:36 | 65.64194 | -168.30280 | 5505 ft | 102 kts | 278° |
| 2026-05-04 22:37 | 65.64330 | -168.31932 | 5886 ft | 97 kts | 278° |
| 2026-05-04 22:37 | 65.64465 | -168.33472 | 6264 ft | 90 kts | 279° |
| 2026-05-04 22:37 | 65.64590 | -168.34882 | 6622 ft | 80 kts | 279° |
| 2026-05-04 22:37 | 65.64699 | -168.36106 | 6909 ft | 70 kts | 277° |
| 2026-05-04 22:38 | 65.64820 | -168.37422 | 6973 ft | 91 kts | 281° |
| 2026-05-04 22:38 | 65.64981 | -168.39063 | 7116 ft | 107 kts | 281° |
| 2026-05-04 22:38 | 65.65152 | -168.40878 | 7310 ft | 116 kts | 281° |
| 2026-05-04 22:38 | 65.65334 | -168.42849 | 7559 ft | 121 kts | 281° |
| 2026-05-04 22:39 | 65.65520 | -168.44853 | 7843 ft | 123 kts | 281° |
| 2026-05-04 22:39 | 65.65709 | -168.46930 | 7999 ft | 134 kts | 281° |
| 2026-05-04 22:39 | 65.65930 | -168.49278 | 8004 ft | 151 kts | 282° |
| 2026-05-04 22:39 | 65.66172 | -168.51851 | 8004 ft | 161 kts | 282° |
| 2026-05-04 22:40 | 65.66425 | -168.54562 | 8004 ft | 167 kts | 282° |
| 2026-05-04 22:40 | 65.66678 | -168.57304 | 8003 ft | 169 kts | 282° |
| 2026-05-04 22:40 | 65.66935 | -168.60109 | 7998 ft | 171 kts | 282° |
| 2026-05-04 22:40 | 65.67192 | -168.62937 | 7998 ft | 172 kts | 282° |
| 2026-05-04 22:41 | 65.67450 | -168.65774 | 7998 ft | 172 kts | 282° |
| 2026-05-04 22:41 | 65.67708 | -168.68622 | 7994 ft | 172 kts | 282° |
| 2026-05-04 22:41 | 65.67964 | -168.71458 | 7991 ft | 172 kts | 282° |
| 2026-05-04 22:41 | 65.68221 | -168.74299 | 7989 ft | 173 kts | 282° |
| 2026-05-04 22:42 | 65.68476 | -168.77141 | 7986 ft | 173 kts | 282° |
| 2026-05-04 22:42 | 65.68733 | -168.79991 | 7983 ft | 173 kts | 282° |
| 2026-05-04 22:42 | 65.68988 | -168.82843 | 7979 ft | 173 kts | 282° |
| 2026-05-04 22:42 | 65.69239 | -168.85659 | 7978 ft | 173 kts | 281° |
| 2026-05-04 22:43 | 65.69497 | -168.88548 | 7974 ft | 173 kts | 282° |
| 2026-05-04 22:43 | 65.69745 | -168.91356 | 7970 ft | 173 kts | 282° |
| 2026-05-04 22:43 | 65.70021 | -168.94210 | 7966 ft | 173 kts | 282° |
| 2026-05-04 22:43 | 65.70263 | -168.97062 | 7966 ft | 173 kts | 277° |
| 2026-05-04 22:44 | 65.70161 | -168.99970 | 7965 ft | 173 kts | 261° |
| 2026-05-04 22:44 | 65.69993 | -169.02861 | 7968 ft | 173 kts | 263° |
| 2026-05-04 22:44 | 65.69848 | -169.05766 | 7969 ft | 173 kts | 263° |
| 2026-05-04 22:44 | 65.69699 | -169.08664 | 7969 ft | 173 kts | 263° |
| 2026-05-04 22:45 | 65.69547 | -169.11567 | 7969 ft | 173 kts | 263° |
| 2026-05-04 22:45 | 65.69242 | -169.17362 | 7967 ft | 173 kts | 263° |
| 2026-05-04 22:45 | 65.69091 | -169.20223 | 7968 ft | 173 kts | 263° |
| 2026-05-04 22:46 | 65.68936 | -169.23118 | 7967 ft | 173 kts | 263° |
| 2026-05-04 22:46 | 65.68782 | -169.26009 | 7966 ft | 173 kts | 263° |
| 2026-05-04 22:46 | 65.68627 | -169.28909 | 7962 ft | 173 kts | 263° |
| 2026-05-04 22:46 | 65.68471 | -169.31806 | 7963 ft | 173 kts | 263° |
| 2026-05-04 22:47 | 65.68315 | -169.34695 | 7962 ft | 173 kts | 263° |
| 2026-05-04 22:47 | 65.68158 | -169.37585 | 7963 ft | 173 kts | 263° |
| 2026-05-04 22:47 | 65.68002 | -169.40480 | 7961 ft | 173 kts | 263° |
| 2026-05-04 22:47 | 65.67843 | -169.43373 | 7962 ft | 173 kts | 262° |
| 2026-05-04 22:48 | 65.67686 | -169.46258 | 7962 ft | 173 kts | 263° |
| 2026-05-04 22:48 | 65.67527 | -169.49146 | 7962 ft | 172 kts | 263° |
| 2026-05-04 22:48 | 65.67370 | -169.51988 | 7963 ft | 172 kts | 263° |
| 2026-05-04 22:48 | 65.67212 | -169.54865 | 7961 ft | 172 kts | 263° |
| 2026-05-04 22:49 | 65.67051 | -169.57754 | 7964 ft | 172 kts | 262° |
| 2026-05-04 22:49 | 65.66891 | -169.60637 | 7960 ft | 172 kts | 262° |
| 2026-05-04 22:49 | 65.66730 | -169.63517 | 7964 ft | 172 kts | 262° |
| 2026-05-04 22:49 | 65.66567 | -169.66400 | 7965 ft | 172 kts | 262° |
| 2026-05-04 22:50 | 65.66405 | -169.69283 | 7964 ft | 172 kts | 262° |
| 2026-05-04 22:50 | 65.66243 | -169.72135 | 7965 ft | 172 kts | 262° |
| 2026-05-04 22:50 | 65.66080 | -169.75022 | 7966 ft | 172 kts | 262° |
| 2026-05-04 22:50 | 65.65971 | -169.76929 | 7965 ft | 172 kts | 262° |
| 2026-05-04 22:51 | 65.65807 | -169.79810 | 7962 ft | 172 kts | 262° |
| 2026-05-04 22:51 | 65.65642 | -169.82689 | 7963 ft | 172 kts | 262° |
| 2026-05-04 22:51 | 65.65422 | -169.86503 | 7958 ft | 172 kts | 262° |
| 2026-05-04 22:51 | 65.65311 | -169.88442 | 7960 ft | 172 kts | 262° |
| 2026-05-04 22:52 | 65.65145 | -169.91321 | 7960 ft | 172 kts | 262° |
| 2026-05-04 22:52 | 65.64979 | -169.94197 | 7959 ft | 172 kts | 262° |
| 2026-05-04 22:52 | 65.64811 | -169.97071 | 7958 ft | 172 kts | 262° |
| 2026-05-04 22:52 | 65.64645 | -169.99915 | 7961 ft | 172 kts | 262° |
| 2026-05-04 22:53 | 65.64476 | -170.02793 | 7959 ft | 172 kts | 262° |
| 2026-05-04 22:53 | 65.64307 | -170.05663 | 7961 ft | 172 kts | 262° |
| 2026-05-04 22:53 | 65.64138 | -170.08536 | 7958 ft | 172 kts | 262° |
| 2026-05-04 22:53 | 65.63967 | -170.11414 | 7960 ft | 172 kts | 262° |
| 2026-05-04 22:54 | 65.63797 | -170.14286 | 7962 ft | 172 kts | 262° |
| 2026-05-04 22:54 | 65.63628 | -170.17121 | 7959 ft | 172 kts | 262° |
| 2026-05-04 22:54 | 65.63457 | -170.19988 | 7960 ft | 172 kts | 262° |
| 2026-05-04 22:54 | 65.63283 | -170.22891 | 7960 ft | 172 kts | 262° |
| 2026-05-04 22:55 | 65.63113 | -170.25727 | 7955 ft | 172 kts | 262° |
| 2026-05-04 22:55 | 65.62939 | -170.28589 | 7960 ft | 172 kts | 262° |
| 2026-05-04 22:55 | 65.62766 | -170.31456 | 7958 ft | 172 kts | 262° |
| 2026-05-04 22:55 | 65.62592 | -170.34324 | 7957 ft | 172 kts | 262° |
| 2026-05-04 22:56 | 65.62417 | -170.37188 | 7957 ft | 172 kts | 262° |
| 2026-05-04 22:56 | 65.62242 | -170.40056 | 7957 ft | 172 kts | 262° |
| 2026-05-04 22:56 | 65.62066 | -170.42918 | 7960 ft | 172 kts | 262° |
| 2026-05-04 22:56 | 65.61893 | -170.45744 | 7960 ft | 172 kts | 262° |
| 2026-05-04 22:57 | 65.61715 | -170.48608 | 7961 ft | 172 kts | 262° |
| 2026-05-04 22:57 | 65.61539 | -170.51471 | 7961 ft | 172 kts | 262° |
| 2026-05-04 22:57 | 65.61369 | -170.54191 | 7958 ft | 172 kts | 262° |
| 2026-05-04 22:57 | 65.61194 | -170.57013 | 7966 ft | 172 kts | 261° |
| 2026-05-04 22:58 | 65.61014 | -170.59886 | 7961 ft | 173 kts | 262° |
| 2026-05-04 22:58 | 65.60835 | -170.62777 | 7966 ft | 174 kts | 261° |
| 2026-05-04 22:58 | 65.60651 | -170.65675 | 7963 ft | 175 kts | 261° |
| 2026-05-04 22:58 | 65.60467 | -170.68581 | 7961 ft | 174 kts | 261° |
| 2026-05-04 22:59 | 65.60284 | -170.71467 | 7957 ft | 173 kts | 261° |
| 2026-05-04 22:59 | 65.60102 | -170.74344 | 7957 ft | 172 kts | 261° |
| 2026-05-04 22:59 | 65.59920 | -170.77207 | 7954 ft | 172 kts | 261° |
| 2026-05-04 22:59 | 65.59737 | -170.80060 | 7956 ft | 172 kts | 261° |
| 2026-05-04 23:00 | 65.59554 | -170.82921 | 7958 ft | 172 kts | 261° |
| 2026-05-04 23:00 | 65.59370 | -170.85773 | 7955 ft | 172 kts | 261° |
| 2026-05-04 23:00 | 65.59188 | -170.88597 | 7957 ft | 172 kts | 261° |
| 2026-05-04 23:00 | 65.59004 | -170.91448 | 7961 ft | 172 kts | 261° |
| 2026-05-04 23:01 | 65.58819 | -170.94304 | 7957 ft | 172 kts | 261° |
| 2026-05-04 23:01 | 65.58633 | -170.97161 | 7957 ft | 172 kts | 261° |
| 2026-05-04 23:01 | 65.58369 | -170.99979 | 7961 ft | 174 kts | 247° |
| 2026-05-04 23:01 | 65.57629 | -171.02286 | 7969 ft | 175 kts | 222° |
| 2026-05-04 23:02 | 65.56677 | -171.04125 | 7967 ft | 175 kts | 220° |
| 2026-05-04 23:02 | 65.55745 | -171.05964 | 7965 ft | 175 kts | 221° |
| 2026-05-04 23:02 | 65.54804 | -171.07827 | 7964 ft | 175 kts | 221° |
| 2026-05-04 23:02 | 65.53857 | -171.09687 | 7963 ft | 175 kts | 221° |
| 2026-05-04 23:03 | 65.52914 | -171.11552 | 7962 ft | 175 kts | 221° |
| 2026-05-04 23:03 | 65.51979 | -171.13386 | 7961 ft | 175 kts | 221° |
| 2026-05-04 23:03 | 65.51034 | -171.15241 | 7967 ft | 175 kts | 221° |
| 2026-05-04 23:03 | 65.50089 | -171.17094 | 7970 ft | 175 kts | 221° |
| 2026-05-04 23:04 | 65.49143 | -171.18950 | 7964 ft | 175 kts | 221° |
| 2026-05-04 23:04 | 65.48197 | -171.20802 | 7968 ft | 175 kts | 221° |
| 2026-05-04 23:04 | 65.47254 | -171.22648 | 7966 ft | 175 kts | 221° |
| 2026-05-04 23:04 | 65.46321 | -171.24470 | 7961 ft | 175 kts | 221° |
| 2026-05-04 23:05 | 65.45376 | -171.26315 | 7961 ft | 175 kts | 220° |
| 2026-05-04 23:05 | 65.44432 | -171.28159 | 7961 ft | 175 kts | 220° |
| 2026-05-04 23:05 | 65.43486 | -171.30001 | 7956 ft | 175 kts | 221° |
| 2026-05-04 23:05 | 65.42539 | -171.31845 | 7967 ft | 175 kts | 220° |
| 2026-05-04 23:06 | 65.41592 | -171.33688 | 7964 ft | 175 kts | 220° |
| 2026-05-04 23:06 | 65.40645 | -171.35528 | 7963 ft | 175 kts | 220° |
| 2026-05-04 23:06 | 65.39699 | -171.37366 | 7962 ft | 175 kts | 220° |
| 2026-05-04 23:06 | 65.38762 | -171.39183 | 7963 ft | 175 kts | 220° |
| 2026-05-04 23:07 | 65.37817 | -171.41013 | 7961 ft | 175 kts | 220° |
| 2026-05-04 23:07 | 65.36870 | -171.42851 | 7962 ft | 175 kts | 221° |
| 2026-05-04 23:07 | 65.35924 | -171.44691 | 7962 ft | 175 kts | 220° |
| 2026-05-04 23:07 | 65.34974 | -171.46513 | 7960 ft | 175 kts | 220° |
| 2026-05-04 23:08 | 65.34025 | -171.48342 | 7959 ft | 175 kts | 220° |
| 2026-05-04 23:08 | 65.33077 | -171.50172 | 7960 ft | 175 kts | 220° |
| 2026-05-04 23:08 | 65.32140 | -171.51979 | 7962 ft | 175 kts | 221° |
| 2026-05-04 23:08 | 65.31194 | -171.53814 | 7959 ft | 175 kts | 220° |
| 2026-05-04 23:09 | 65.30246 | -171.55637 | 7963 ft | 175 kts | 220° |
| 2026-05-04 23:09 | 65.29296 | -171.57461 | 7960 ft | 175 kts | 220° |
| 2026-05-04 23:09 | 65.28342 | -171.59285 | 7964 ft | 175 kts | 219° |
| 2026-05-04 23:09 | 65.27390 | -171.61098 | 7962 ft | 175 kts | 221° |
| 2026-05-04 23:10 | 65.26442 | -171.62925 | 7960 ft | 175 kts | 220° |
| 2026-05-04 23:10 | 65.25492 | -171.64747 | 7965 ft | 175 kts | 220° |
| 2026-05-04 23:10 | 65.24554 | -171.66539 | 7966 ft | 175 kts | 220° |
| 2026-05-04 23:10 | 65.23603 | -171.68356 | 7964 ft | 175 kts | 220° |
| 2026-05-04 23:11 | 65.22652 | -171.70171 | 7968 ft | 175 kts | 220° |
| 2026-05-04 23:11 | 65.21701 | -171.71985 | 7968 ft | 175 kts | 220° |
| 2026-05-04 23:11 | 65.20748 | -171.73799 | 7966 ft | 175 kts | 220° |
| 2026-05-04 23:11 | 65.19792 | -171.75618 | 7964 ft | 175 kts | 220° |
| 2026-05-04 23:12 | 65.18839 | -171.77431 | 7967 ft | 175 kts | 220° |
| 2026-05-04 23:12 | 65.17887 | -171.79238 | 7964 ft | 175 kts | 220° |
| 2026-05-04 23:12 | 65.16934 | -171.81048 | 7964 ft | 175 kts | 220° |
| 2026-05-04 23:12 | 65.15990 | -171.82837 | 7964 ft | 175 kts | 220° |
| 2026-05-04 23:13 | 65.15034 | -171.84649 | 7964 ft | 175 kts | 220° |
| 2026-05-04 23:13 | 65.14080 | -171.86453 | 7964 ft | 175 kts | 220° |
| 2026-05-04 23:13 | 65.13125 | -171.88260 | 7964 ft | 175 kts | 220° |
| 2026-05-04 23:13 | 65.12168 | -171.90067 | 7961 ft | 175 kts | 220° |
| 2026-05-04 23:14 | 65.11213 | -171.91870 | 7964 ft | 175 kts | 220° |
| 2026-05-04 23:14 | 65.10257 | -171.93670 | 7965 ft | 175 kts | 220° |
| 2026-05-04 23:14 | 65.09302 | -171.95470 | 7966 ft | 175 kts | 220° |
| 2026-05-04 23:14 | 65.08358 | -171.97245 | 7964 ft | 175 kts | 220° |
| 2026-05-04 23:15 | 65.07401 | -171.99047 | 7962 ft | 175 kts | 220° |
| 2026-05-04 23:15 | 65.06442 | -172.00846 | 7961 ft | 175 kts | 220° |
| 2026-05-04 23:15 | 65.05485 | -172.02644 | 7964 ft | 175 kts | 220° |
| 2026-05-04 23:15 | 65.04526 | -172.04440 | 7964 ft | 175 kts | 220° |
| 2026-05-04 23:16 | 65.03568 | -172.06236 | 7962 ft | 175 kts | 220° |
| 2026-05-04 23:16 | 65.02620 | -172.08007 | 7958 ft | 175 kts | 220° |
| 2026-05-04 23:16 | 65.02297 | -172.08611 | 7965 ft | 175 kts | 220° |
| 2026-05-04 23:17 | 64.99896 | -172.13096 | 7959 ft | 176 kts | 220° |
| 2026-05-04 23:17 | 64.98938 | -172.14882 | 7962 ft | 176 kts | 220° |
| 2026-05-04 23:17 | 64.97977 | -172.16674 | 7960 ft | 176 kts | 220° |
| 2026-05-04 23:17 | 64.97015 | -172.18461 | 7960 ft | 176 kts | 220° |
| 2026-05-04 23:18 | 64.96051 | -172.20254 | 7964 ft | 175 kts | 220° |
| 2026-05-04 23:18 | 64.95091 | -172.22037 | 7963 ft | 176 kts | 220° |
| 2026-05-04 23:18 | 64.94141 | -172.23800 | 7958 ft | 176 kts | 220° |
| 2026-05-04 23:18 | 64.93178 | -172.25587 | 7960 ft | 176 kts | 220° |
| 2026-05-04 23:19 | 64.92214 | -172.27371 | 7958 ft | 176 kts | 220° |
| 2026-05-04 23:19 | 64.91253 | -172.29149 | 7961 ft | 176 kts | 220° |
| 2026-05-04 23:19 | 64.90290 | -172.30931 | 7961 ft | 175 kts | 220° |
| 2026-05-04 23:19 | 64.89343 | -172.32677 | 7992 ft | 175 kts | 220° |
| 2026-05-04 23:20 | 64.88383 | -172.34451 | 7992 ft | 175 kts | 220° |
| 2026-05-04 23:20 | 64.87422 | -172.36223 | 7992 ft | 176 kts | 220° |
| 2026-05-04 23:20 | 64.86458 | -172.37999 | 7992 ft | 176 kts | 220° |
| 2026-05-04 23:20 | 64.85491 | -172.39777 | 7991 ft | 176 kts | 220° |
| 2026-05-04 23:21 | 64.84523 | -172.41556 | 7988 ft | 176 kts | 220° |
| 2026-05-04 23:21 | 64.83567 | -172.43313 | 7990 ft | 176 kts | 220° |
| 2026-05-04 23:21 | 64.82597 | -172.45093 | 7992 ft | 176 kts | 220° |
| 2026-05-04 23:21 | 64.81628 | -172.46869 | 7989 ft | 176 kts | 220° |
| 2026-05-04 23:22 | 64.80656 | -172.48649 | 7987 ft | 176 kts | 220° |
| 2026-05-04 23:22 | 64.79700 | -172.50399 | 7988 ft | 177 kts | 220° |
| 2026-05-04 23:22 | 64.78725 | -172.52182 | 7991 ft | 177 kts | 220° |
| 2026-05-04 23:22 | 64.77804 | -172.54084 | 7988 ft | 176 kts | 228° |
| 2026-05-04 23:23 | 64.76950 | -172.56150 | 7989 ft | 176 kts | 228° |
| 2026-05-04 23:23 | 64.76088 | -172.58189 | 7986 ft | 176 kts | 227° |
| 2026-05-04 23:23 | 64.75224 | -172.60222 | 7987 ft | 176 kts | 227° |
| 2026-05-04 23:23 | 64.74373 | -172.62225 | 7989 ft | 176 kts | 227° |
| 2026-05-04 23:24 | 64.73512 | -172.64250 | 7988 ft | 176 kts | 227° |
| 2026-05-04 23:24 | 64.72651 | -172.66274 | 7985 ft | 176 kts | 227° |
| 2026-05-04 23:24 | 64.71776 | -172.68330 | 7983 ft | 175 kts | 227° |
| 2026-05-04 23:24 | 64.70915 | -172.70350 | 7986 ft | 175 kts | 227° |
| 2026-05-04 23:25 | 64.70053 | -172.72371 | 7957 ft | 177 kts | 227° |
| 2026-05-04 23:25 | 64.69159 | -172.74236 | 7714 ft | 172 kts | 214° |
| 2026-05-04 23:25 | 64.68058 | -172.75311 | 7450 ft | 170 kts | 203° |
| 2026-05-04 23:25 | 64.66965 | -172.76319 | 7180 ft | 168 kts | 205° |
| 2026-05-04 23:26 | 64.65887 | -172.77345 | 6920 ft | 166 kts | 205° |
| 2026-05-04 23:26 | 64.64830 | -172.78351 | 6667 ft | 166 kts | 205° |
| 2026-05-04 23:26 | 64.63762 | -172.79363 | 6401 ft | 165 kts | 204° |
| 2026-05-04 23:26 | 64.62699 | -172.80369 | 6127 ft | 165 kts | 204° |
| 2026-05-04 23:27 | 64.61637 | -172.81374 | 5846 ft | 164 kts | 204° |
| 2026-05-04 23:27 | 64.60577 | -172.82376 | 5591 ft | 164 kts | 204° |
| 2026-05-04 23:27 | 64.59528 | -172.83437 | 5315 ft | 163 kts | 212° |
| 2026-05-04 23:27 | 64.58740 | -172.85278 | 5045 ft | 161 kts | 239° |
| 2026-05-04 23:28 | 64.58373 | -172.87703 | 4768 ft | 159 kts | 264° |
| 2026-05-04 23:28 | 64.58483 | -172.90146 | 4692 ft | 148 kts | 287° |
| 2026-05-04 23:28 | 64.58860 | -172.92302 | 4691 ft | 140 kts | 290° |
| 2026-05-04 23:28 | 64.59219 | -172.94392 | 4697 ft | 137 kts | 290° |
| 2026-05-04 23:29 | 64.59569 | -172.96423 | 4698 ft | 136 kts | 290° |
| 2026-05-04 23:29 | 64.59921 | -172.98470 | 4699 ft | 135 kts | 291° |
| 2026-05-04 23:29 | 64.60233 | -173.00538 | 4692 ft | 135 kts | 279° |
| 2026-05-04 23:29 | 64.60089 | -173.02680 | 4704 ft | 138 kts | 246° |
| 2026-05-04 23:30 | 64.59449 | -173.04366 | 4590 ft | 148 kts | 214° |
| 2026-05-04 23:30 | 64.58477 | -173.05290 | 4371 ft | 154 kts | 202° |
| 2026-05-04 23:30 | 64.57465 | -173.06200 | 4172 ft | 157 kts | 204° |
| 2026-05-04 23:30 | 64.56448 | -173.07166 | 3971 ft | 160 kts | 205° |
| 2026-05-04 23:31 | 64.55407 | -173.08149 | 3760 ft | 161 kts | 203° |
| 2026-05-04 23:31 | 64.54380 | -173.09073 | 3699 ft | 153 kts | 202° |
| 2026-05-04 23:31 | 64.53407 | -173.09963 | 3703 ft | 149 kts | 203° |
| 2026-05-04 23:31 | 64.52466 | -173.10870 | 3691 ft | 147 kts | 204° |
| 2026-05-04 23:32 | 64.51519 | -173.11714 | 3685 ft | 147 kts | 204° |
| 2026-05-04 23:32 | 64.50560 | -173.12578 | 3696 ft | 149 kts | 202° |
| 2026-05-04 23:32 | 64.49621 | -173.13435 | 3695 ft | 143 kts | 204° |
| 2026-05-04 23:32 | 64.48714 | -173.14283 | 3700 ft | 140 kts | 204° |
| 2026-05-04 23:33 | 64.47802 | -173.15134 | 3698 ft | 142 kts | 204° |
| 2026-05-04 23:33 | 64.46876 | -173.15987 | 3579 ft | 147 kts | 204° |
| 2026-05-04 23:33 | 64.45951 | -173.16848 | 3151 ft | 140 kts | 204° |
| 2026-05-04 23:33 | 64.45102 | -173.17632 | 2736 ft | 125 kts | 203° |
| 2026-05-04 23:34 | 64.44314 | -173.18340 | 2310 ft | 115 kts | 201° |
| 2026-05-04 23:34 | 64.43616 | -173.18987 | 1881 ft | 104 kts | 203° |
| 2026-05-04 23:34 | 64.42951 | -173.19600 | 1404 ft | 102 kts | 202° |
| 2026-05-04 23:34 | 64.42311 | -173.20175 | 1018 ft | 96 kts | 201° |
| 2026-05-04 23:35 | 64.41713 | -173.20726 | 779 ft | 87 kts | 202° |
| 2026-05-04 23:35 | 64.41177 | -173.21229 | 628 ft | 79 kts | 202° |
| 2026-05-04 23:35 | 64.40686 | -173.21688 | 486 ft | 74 kts | 202° |
| 2026-05-04 23:35 | 64.40212 | -173.22126 | 383 ft | 73 kts | 201° |
| 2026-05-04 23:36 | 64.39728 | -173.22568 | 249 ft | 75 kts | 202° |
| 2026-05-04 23:36 | 64.39257 | -173.23004 | 160 ft | 73 kts | 201° |
| 2026-05-04 23:36 | 64.38791 | -173.23427 | 87 ft | 71 kts | 200° |
| 2026-05-04 23:36 | 64.38341 | -173.23836 | 51 ft | 68 kts | 200° |
| 2026-05-04 23:37 | 64.38009 | -173.24146 | 51 ft | 42 kts | 199° |
| 2026-05-04 23:37 | 64.37736 | -173.24394 | 51 ft | 43 kts | 205° |
| 2026-05-04 23:37 | 64.37514 | -173.24565 | 54 ft | 20 kts | 139° |
| 2026-05-04 23:37 | 64.37463 | -173.24289 | 54 ft | 21 kts | 96° |
| 2026-05-04 23:38 | 64.37524 | -173.23981 | 54 ft | 27 kts | 24° |
| 2026-05-04 23:38 | 64.37716 | -173.23813 | 52 ft | 31 kts | 20° |
| 2026-05-04 23:38 | 64.37904 | -173.23643 | 52 ft | 30 kts | 21° |
| 2026-05-04 23:38 | 64.38105 | -173.23462 | 51 ft | 29 kts | 20° |
| 2026-05-04 23:39 | 64.38276 | -173.23466 | 51 ft | 23 kts | 353° |
| 2026-05-04 23:39 | 64.38360 | -173.23412 | 50 ft | 0 kts | 25° |
| 2026-05-04 23:39 | 64.38373 | -173.23390 | 54 ft | 6 kts | 50° |
| 2026-05-04 23:39 | 64.38420 | -173.23288 | 51 ft | 9 kts | 76° |
| 2026-05-04 23:40 | 64.38400 | -173.23259 | 51 ft | 4 kts | 193° |
| 2026-05-04 23:40 | 64.38390 | -173.23262 | 54 ft | 2 kts | 187° |
| 2026-05-04 23:40 | 64.38382 | -173.23269 | 51 ft | 0 kts | 212° |